createdAt,value
2022-12-12T00:04:00.097Z,-1.39
2022-12-12T00:09:02.807Z,-1.45
2022-12-12T00:14:03.638Z,-1.48
2022-12-12T00:19:04.397Z,-1.50
2022-12-12T00:24:06.151Z,-1.57
2022-12-12T00:29:07.165Z,-1.49
2022-12-12T00:34:07.904Z,-1.56
2022-12-12T00:39:13.774Z,-1.62
2022-12-12T00:44:18.396Z,-1.71
2022-12-12T00:49:19.255Z,-1.69
2022-12-12T00:54:20.271Z,-1.70
2022-12-12T00:59:21.025Z,-1.64
2022-12-12T01:04:21.837Z,-1.54
2022-12-12T01:09:22.782Z,-1.57
2022-12-12T01:14:23.677Z,-1.54
2022-12-12T01:19:24.455Z,-1.56
2022-12-12T01:24:25.199Z,-1.56
2022-12-12T01:29:25.965Z,-1.57
2022-12-12T01:34:26.999Z,-1.60
2022-12-12T01:39:28.023Z,-1.65
2022-12-12T01:45:02.819Z,-1.84
2022-12-12T01:50:08.393Z,-1.86
2022-12-12T01:55:16.654Z,-2.00
2022-12-12T02:00:18.558Z,-2.01
2022-12-12T02:05:25.866Z,-2.05
2022-12-12T02:10:27.158Z,-2.07
2022-12-12T02:15:42.930Z,-2.01
2022-12-12T02:20:59.397Z,-2.06
2022-12-12T02:26:46.782Z,-2.15
2022-12-12T02:34:03.549Z,-2.06
2022-12-12T02:39:22.305Z,-1.96
2022-12-12T02:44:39.657Z,-1.94
2022-12-12T02:49:48.061Z,-1.90
2022-12-12T02:54:48.921Z,-1.88
2022-12-12T02:59:57.178Z,-1.91
2022-12-12T03:07:04.801Z,-1.90
2022-12-12T03:12:37.759Z,-1.75
2022-12-12T03:17:48.263Z,-1.77
2022-12-12T03:23:08.235Z,-1.80
2022-12-12T03:29:46.615Z,-1.88
2022-12-12T03:35:02.517Z,-1.82
2022-12-12T03:40:15.890Z,-1.95
2022-12-12T03:45:26.022Z,-1.95
2022-12-12T03:50:34.247Z,-1.91
2022-12-12T03:58:47.938Z,-1.94
2022-12-12T04:04:02.658Z,-1.84
2022-12-12T04:09:26.032Z,-1.94
2022-12-12T04:14:56.544Z,-2.07
2022-12-12T04:20:24.055Z,-2.16
2022-12-12T04:26:11.995Z,-2.20
2022-12-12T04:31:16.016Z,-2.20
2022-12-12T04:36:20.377Z,-2.21
2022-12-12T04:41:22.253Z,-2.15
2022-12-12T04:46:27.831Z,-2.12
2022-12-12T04:51:41.721Z,-2.13
2022-12-12T04:56:45.321Z,-1.91
2022-12-12T05:01:59.991Z,-1.86
2022-12-12T05:07:09.220Z,-1.89
2022-12-12T05:12:10.148Z,-2.00
2022-12-12T05:17:15.265Z,-2.02
2022-12-12T05:22:15.993Z,-2.04
2022-12-12T05:27:16.831Z,-2.00
2022-12-12T05:32:17.574Z,-1.98
2022-12-12T05:37:18.397Z,-1.98
2022-12-12T05:42:19.122Z,-2.06
2022-12-12T05:47:19.898Z,-2.04
2022-12-12T05:52:20.678Z,-1.86
2022-12-12T05:57:21.907Z,-1.83
2022-12-12T06:02:22.745Z,-1.80
2022-12-12T06:07:24.460Z,-1.79
2022-12-12T06:12:25.382Z,-1.77
2022-12-12T06:17:32.757Z,-1.75
2022-12-12T06:22:35.410Z,-1.87
2022-12-12T06:27:36.475Z,-2.00
2022-12-12T06:32:37.251Z,-2.06
2022-12-12T06:37:39.114Z,-1.95
2022-12-12T06:42:44.683Z,-1.98
2022-12-12T06:47:50.245Z,-1.88
2022-12-12T06:52:50.981Z,-1.85
2022-12-12T06:57:51.824Z,-1.83
2022-12-12T07:02:52.584Z,-1.77
2022-12-12T07:07:54.000Z,-1.82
2022-12-12T07:12:57.541Z,-1.95
2022-12-12T07:17:58.617Z,-1.99
2022-12-12T07:22:59.332Z,-2.19
2022-12-12T07:28:00.183Z,-2.25
2022-12-12T07:33:00.992Z,-2.29
2022-12-12T07:38:02.642Z,-2.29
2022-12-12T07:43:03.644Z,-2.42
2022-12-12T07:48:04.787Z,-2.40
2022-12-12T07:53:07.015Z,-2.35
2022-12-12T07:58:07.969Z,-2.22
2022-12-12T08:03:08.771Z,-2.11
2022-12-12T08:08:10.233Z,-1.93
2022-12-12T08:13:11.430Z,-1.80
2022-12-12T08:18:12.218Z,-1.49
2022-12-12T08:23:13.134Z,-1.49
2022-12-12T08:28:14.635Z,-1.70
2022-12-12T08:33:15.415Z,-1.71
2022-12-12T08:38:16.173Z,-1.91
2022-12-12T08:43:17.150Z,-2.07
2022-12-12T08:48:17.883Z,-2.24
2022-12-12T08:53:18.635Z,-2.12
2022-12-12T08:58:20.349Z,-2.10
2022-12-12T09:03:26.148Z,-1.96
2022-12-12T09:08:30.133Z,-1.83
2022-12-12T09:13:31.023Z,-1.84
2022-12-12T09:18:31.915Z,-1.94
2022-12-12T09:23:33.079Z,-1.87
2022-12-12T09:28:34.504Z,-1.71
2022-12-12T09:33:35.716Z,-1.57
2022-12-12T09:38:36.515Z,-1.32
2022-12-12T09:43:58.624Z,-1.26
2022-12-12T09:50:32.251Z,-1.11
2022-12-12T09:56:14.304Z,-0.99
2022-12-12T10:04:02.633Z,-0.78
2022-12-12T10:09:33.735Z,-0.78
2022-12-12T10:14:42.499Z,-0.79
2022-12-12T10:20:16.469Z,-0.80
2022-12-12T10:25:55.717Z,-0.98
2022-12-12T10:34:14.203Z,-0.94
2022-12-12T10:39:44.751Z,-1.11
2022-12-12T10:46:27.775Z,-0.96
2022-12-12T10:51:30.203Z,-1.09
2022-12-12T10:56:30.984Z,-0.81
2022-12-12T11:07:18.635Z,-0.64
2022-12-12T11:12:20.252Z,-0.93
2022-12-12T11:17:28.102Z,-1.05
2022-12-12T11:22:32.532Z,-0.88
2022-12-12T11:27:40.252Z,-0.90
2022-12-12T11:32:45.784Z,-0.87
2022-12-12T11:37:49.216Z,-1.05
2022-12-12T11:42:50.778Z,-1.04
2022-12-12T11:47:52.135Z,-0.78
2022-12-12T11:52:55.769Z,-0.94
2022-12-12T11:58:15.774Z,-0.73
2022-12-12T12:03:29.485Z,-1.06
2022-12-12T12:09:03.132Z,-0.96
2022-12-12T12:14:46.777Z,-0.71
2022-12-12T12:20:03.705Z,-0.52
2022-12-12T12:25:37.347Z,-0.68
2022-12-12T12:33:39.244Z,-0.51
2022-12-12T12:40:27.696Z,-0.47
2022-12-12T12:45:44.948Z,-0.46
2022-12-12T12:50:58.599Z,-0.59
2022-12-12T12:56:08.164Z,-0.59
2022-12-12T13:01:17.221Z,-0.63
2022-12-12T13:06:25.015Z,-0.61
2022-12-12T13:11:37.001Z,-0.81
2022-12-12T13:16:39.936Z,-0.70
2022-12-12T13:21:52.713Z,-0.67
2022-12-12T13:27:21.809Z,-0.54
2022-12-12T13:36:06.675Z,-0.70
2022-12-12T13:41:09.240Z,-1.16
2022-12-12T13:48:03.753Z,-1.02
2022-12-12T13:53:17.165Z,-1.27
2022-12-12T13:58:32.589Z,-1.44
2022-12-12T14:03:33.438Z,-1.26
2022-12-12T14:08:37.164Z,-1.34
2022-12-12T14:13:44.950Z,-1.33
2022-12-12T14:19:07.929Z,-1.26
2022-12-12T14:25:01.238Z,-1.42
2022-12-12T14:30:16.804Z,-1.40
2022-12-12T14:36:09.100Z,-1.27
2022-12-12T14:41:15.664Z,-1.34
2022-12-12T14:46:18.758Z,-1.29
2022-12-12T14:51:29.530Z,-1.27
2022-12-12T14:56:40.129Z,-0.94
2022-12-12T15:01:52.818Z,-0.54
2022-12-12T15:07:02.638Z,-0.42
2022-12-12T15:12:22.944Z,-0.16
2022-12-12T15:17:30.367Z,-0.99
2022-12-12T15:22:34.475Z,-1.14
2022-12-12T15:27:47.028Z,-1.60
2022-12-12T15:32:50.659Z,-1.77
2022-12-12T15:38:00.165Z,-1.96
2022-12-12T15:43:14.261Z,-1.95
2022-12-12T15:48:16.714Z,-2.06
2022-12-12T15:53:35.629Z,-2.23
2022-12-12T15:58:48.981Z,-2.25
2022-12-12T16:04:21.958Z,-2.16
2022-12-12T16:09:24.958Z,-2.14
2022-12-12T16:14:41.831Z,-2.06
2022-12-12T16:20:06.688Z,-2.15
2022-12-12T16:25:49.927Z,-2.16
2022-12-12T16:31:04.337Z,-2.18
2022-12-12T16:36:13.782Z,-2.11
2022-12-12T16:41:16.953Z,-2.13
2022-12-12T16:46:20.515Z,-2.25
2022-12-12T16:51:27.674Z,-2.44
2022-12-12T16:56:28.737Z,-2.51
2022-12-12T17:01:33.407Z,-2.46
2022-12-12T17:06:38.129Z,-2.69
2022-12-12T17:11:38.891Z,-2.76
2022-12-12T17:16:40.117Z,-2.88
2022-12-12T17:21:40.908Z,-2.90
2022-12-12T17:26:41.941Z,-2.86
2022-12-12T17:31:42.801Z,-3.02
2022-12-12T17:36:43.942Z,-3.18
2022-12-12T17:41:44.675Z,-3.28
2022-12-12T17:46:45.464Z,-3.32
2022-12-12T17:51:46.187Z,-3.47
2022-12-12T17:56:46.959Z,-3.39
2022-12-12T18:01:53.012Z,-3.24
2022-12-12T18:06:53.770Z,-3.05
2022-12-12T18:11:54.533Z,-3.03
2022-12-12T18:16:55.456Z,-2.90
2022-12-12T18:22:01.646Z,-2.86
2022-12-12T18:27:03.322Z,-2.68
2022-12-12T18:32:04.588Z,-2.77
2022-12-12T18:37:05.354Z,-3.13
2022-12-12T18:42:06.680Z,-3.16
2022-12-12T18:47:07.925Z,-3.16
2022-12-12T18:52:08.705Z,-3.20
2022-12-12T18:57:09.613Z,-3.19
2022-12-12T19:02:14.349Z,-3.09
2022-12-12T19:07:17.600Z,-3.09
2022-12-12T19:12:18.297Z,-2.92
2022-12-12T19:17:25.222Z,-2.88
2022-12-12T19:27:58.092Z,-2.97
2022-12-12T19:33:00.346Z,-3.12
2022-12-12T19:38:01.271Z,-3.00
2022-12-12T19:43:02.644Z,-3.03
2022-12-12T19:48:04.276Z,-3.18
2022-12-12T19:53:05.021Z,-3.27
2022-12-12T19:58:07.091Z,-3.23
2022-12-12T20:03:07.918Z,-3.26
2022-12-12T20:08:08.744Z,-3.33
2022-12-12T20:13:10.719Z,-3.43
2022-12-12T20:18:16.157Z,-3.24
2022-12-12T20:23:17.252Z,-3.48
2022-12-12T20:28:17.996Z,-3.49
2022-12-12T20:33:18.850Z,-3.40
2022-12-12T20:38:19.682Z,-3.37
2022-12-12T20:43:20.853Z,-3.52
2022-12-12T20:48:21.582Z,-3.44
2022-12-12T20:53:22.788Z,-3.44
2022-12-12T20:58:23.523Z,-3.33
2022-12-12T21:03:24.694Z,-3.25
2022-12-12T21:08:25.562Z,-3.40
2022-12-12T21:13:26.481Z,-3.25
2022-12-12T21:18:27.236Z,-3.26
2022-12-12T21:23:28.903Z,-3.39
2022-12-12T21:28:29.638Z,-3.36
2022-12-12T21:33:30.517Z,-3.46
2022-12-12T21:38:31.308Z,-3.50
2022-12-12T21:43:32.386Z,-3.47
2022-12-12T21:48:33.369Z,-3.55
2022-12-12T21:53:35.081Z,-3.65
2022-12-12T21:58:37.344Z,-3.78
2022-12-12T22:03:38.559Z,-3.66
2022-12-12T22:08:40.100Z,-3.73
2022-12-12T22:13:41.901Z,-3.86
2022-12-12T22:18:43.121Z,-3.80
2022-12-12T22:23:45.885Z,-4.15
2022-12-12T22:28:48.299Z,-4.00
2022-12-12T22:33:58.759Z,-4.23
2022-12-12T22:39:00.534Z,-4.22
2022-12-12T22:44:04.338Z,-4.20
2022-12-12T22:49:05.055Z,-4.19
2022-12-12T22:54:05.907Z,-4.22
2022-12-12T22:59:07.491Z,-4.24
2022-12-12T23:04:11.674Z,-4.40
2022-12-12T23:09:16.333Z,-4.29
2022-12-12T23:14:20.854Z,-4.26
2022-12-12T23:19:25.123Z,-4.25
2022-12-12T23:24:25.944Z,-4.22
2022-12-12T23:29:27.059Z,-4.34
2022-12-12T23:34:29.443Z,-4.32
2022-12-12T23:39:30.172Z,-4.25
2022-12-12T23:44:31.459Z,-4.27
2022-12-12T23:49:32.164Z,-4.39
2022-12-12T23:54:34.196Z,-4.32
2022-12-12T23:59:34.961Z,-4.33
